Time;durP1;ratioP1;P1;durP2;ratioP2;P2;SDS_P1;SDS_P2;PMS_P1;PMS_P2;Temp;Humidity;BMP_temperature;BMP_pressure;BME280_temperature;BME280_humidity;BME280_pressure;Samples;Min_cycle;Max_cycle;Signal;HPM_P1;HPM_P2
2021/09/24 00:00:47;;;;;;;;;;;13.00;99.90;;;11.75;91.78;95886.81;10473435;28;1910;-77
2021/09/24 00:05:50;;;;;;;;;;;13.00;99.90;;;11.72;92.48;95881.19;10465472;28;1868;-77
2021/09/24 00:10:53;;;;;;;;;;;12.90;99.90;;;11.66;93.35;95883.13;10470987;28;2084;-78
2021/09/24 00:15:56;;;;;;;;;;;12.90;99.90;;;11.62;94.15;95887.44;10454090;28;2158;-77
2021/09/24 00:20:59;;;;;;;;;;;12.80;99.90;;;11.60;94.40;95873.44;10473406;28;2033;-78
2021/09/24 00:26:02;;;;;;;;;;;12.80;99.90;;;11.62;94.79;95873.97;10459097;28;2009;-77
2021/09/24 00:31:05;;;;;;;;;;;12.70;99.90;;;11.58;94.70;95862.16;10469178;28;1991;-78
2021/09/24 00:36:08;;;;;;;;;;;12.80;99.90;;;11.60;95.53;95857.31;10476203;28;2088;-77
2021/09/24 00:41:11;;;;;;;;;;;12.70;99.90;;;11.66;95.51;95861.56;10452120;28;2041;-79
2021/09/24 00:46:19;;;;;;;;;;;12.80;99.90;;;11.61;95.98;95842.75;10449671;28;1928;-79
2021/09/24 00:51:25;;;;;;;;;;;12.80;99.90;;;11.56;96.67;95845.47;10459485;28;2065;-78
2021/09/24 00:56:32;;;;;;;;;;;12.70;99.90;;;11.60;97.40;95846.53;10443833;28;2305;-77
2021/09/24 01:01:35;;;;;;;;;;;12.80;99.90;;;11.62;97.90;95847.03;10453597;28;2463;-77
2021/09/24 01:06:38;;;;;;;;;;;12.70;99.90;;;11.61;97.90;95840.06;10465161;28;2162;-79
2021/09/24 01:11:41;;;;;;;;;;;12.80;99.90;;;11.68;97.81;95850.53;10462231;28;2199;-78
2021/09/24 01:16:56;;;;;;;;;;;12.70;99.90;;;11.64;98.36;95864.56;10451016;28;2139;-77
2021/09/24 01:22:19;;;;;;;;;;;12.80;99.90;;;11.61;98.45;95859.72;10463919;28;1980;-78
2021/09/24 01:27:43;;;;;;;;;;;12.80;99.90;;;11.51;100.00;95854.38;10462846;28;2286;-78
2021/09/24 01:33:06;;;;;;;;;;;12.70;99.90;;;11.42;100.00;95849.84;10467392;28;2159;-78
2021/09/24 01:38:09;;;;;;;;;;;12.60;99.90;;;11.30;100.00;95859.03;10464817;28;2526;-78
2021/09/24 01:43:11;;;;;;;;;;;12.50;99.90;;;11.18;100.00;95855.06;10465682;28;2131;-76
2021/09/24 01:48:14;;;;;;;;;;;12.50;99.90;;;11.07;100.00;95843.56;10479685;28;2001;-76
2021/09/24 01:53:17;;;;;;;;;;;12.30;99.90;;;11.13;100.00;95847.81;10486264;28;1530;-76
2021/09/24 01:58:20;;;;;;;;;;;12.30;99.90;;;11.00;100.00;95838.44;10476600;28;2275;-76
2021/09/24 02:03:23;;;;;;;;;;;12.20;99.90;;;10.95;100.00;95845.75;10475406;28;1928;-78
2021/09/24 02:08:26;;;;;;;;;;;12.20;99.90;;;10.85;100.00;95853.81;10460374;28;1752;-77
2021/09/24 02:13:29;;;;;;;;;;;12.10;99.90;;;10.85;100.00;95851.13;10465453;28;2136;-77
2021/09/24 02:18:32;;;;;;;;;;;12.10;99.90;;;10.79;100.00;95853.03;10457999;28;2132;-77
2021/09/24 02:23:35;;;;;;;;;;;12.00;99.90;;;10.87;100.00;95860.53;10464458;28;2141;-75
2021/09/24 02:28:38;;;;;;;;;;;12.00;99.90;;;10.89;100.00;95869.16;10464083;28;1912;-80
2021/09/24 02:33:41;;;;;;;;;;;12.10;99.90;;;10.79;100.00;95864.59;10476303;28;1987;-78
2021/09/24 02:38:44;;;;;;;;;;;12.00;99.90;;;10.81;100.00;95870.53;10468514;28;2056;-78
2021/09/24 02:43:47;;;;;;;;;;;12.00;99.90;;;10.74;100.00;95872.66;10466517;28;1876;-77
2021/09/24 02:48:50;;;;;;;;;;;11.90;99.90;;;10.71;100.00;95867.84;10448135;28;2106;-77
2021/09/24 02:53:53;;;;;;;;;;;11.90;99.90;;;10.70;100.00;95866.22;10462062;28;2033;-77
2021/09/24 02:58:56;;;;;;;;;;;11.90;99.90;;;10.69;100.00;95867.31;10447880;28;2155;-77
2021/09/24 03:03:59;;;;;;;;;;;11.90;99.90;;;10.67;100.00;95866.75;10449664;28;2116;-78
2021/09/24 03:09:02;;;;;;;;;;;11.90;99.90;;;10.63;100.00;95871.09;10464829;28;2033;-76
2021/09/24 03:14:16;;;;;;;;;;;11.90;99.90;;;10.54;100.00;95878.06;10465551;28;2219;-79
2021/09/24 03:19:19;;;;;;;;;;;11.80;99.90;;;10.38;100.00;95887.25;10466400;28;1910;-78
2021/09/24 03:24:22;;;;;;;;;;;11.70;99.90;;;10.35;100.00;95887.75;10465224;28;1945;-78
2021/09/24 03:29:25;;;;;;;;;;;11.60;99.90;;;10.31;100.00;95884.00;10467977;28;1899;-78
2021/09/24 03:34:28;;;;;;;;;;;11.60;99.90;;;10.34;100.00;95878.09;10465233;28;2065;-78
2021/09/24 03:39:31;;;;;;;;;;;11.50;99.90;;;10.40;100.00;95874.31;10442421;28;2124;-79
2021/09/24 03:44:34;;;;;;;;;;;11.50;99.90;;;10.36;100.00;95867.88;10436485;28;2118;-78
2021/09/24 03:49:37;;;;;;;;;;;11.50;99.90;;;10.38;100.00;95869.22;10442576;28;2019;-78
2021/09/24 03:54:40;;;;;;;;;;;11.60;99.90;;;10.58;100.00;95868.41;10467261;28;2030;-79
2021/09/24 03:59:43;;;;;;;;;;;11.60;99.90;;;10.52;100.00;95872.16;10465963;28;1882;-78
2021/09/24 04:04:51;;;;;;;;;;;11.60;99.90;;;10.46;100.00;95878.63;10461419;28;2120;-79
2021/09/24 04:09:54;;;;;;;;;;;11.60;99.90;;;10.46;100.00;95879.44;10463708;28;2186;-79
2021/09/24 04:14:57;;;;;;;;;;;11.60;99.90;;;10.46;100.00;95875.94;10474253;28;1494;-77
2021/09/24 04:20:00;;;;;;;;;;;11.60;99.90;;;10.51;100.00;95878.63;10473654;28;1920;-76
2021/09/24 04:25:03;;;;;;;;;;;11.60;99.90;;;10.61;100.00;95878.59;10471521;28;2092;-79
2021/09/24 04:30:07;;;;;;;;;;;11.70;99.90;;;10.52;100.00;95875.66;10459887;28;1974;-77
2021/09/24 04:35:09;;;;;;;;;;;11.70;99.90;;;10.50;100.00;95874.34;10466610;28;1852;-78
2021/09/24 04:40:12;;;;;;;;;;;11.70;99.90;;;10.50;100.00;95877.03;10476565;28;2045;-79
2021/09/24 04:45:15;;;;;;;;;;;11.60;99.90;;;10.40;100.00;95877.00;10473894;28;1797;-77
2021/09/24 04:50:18;;;;;;;;;;;11.60;99.90;;;10.35;100.00;95885.06;10474980;28;2037;-79
2021/09/24 04:55:21;;;;;;;;;;;11.60;99.90;;;10.33;100.00;95887.22;10475574;28;1970;-78
2021/09/24 05:00:27;;;;;;;;;;;11.50;99.90;;;10.48;100.00;95889.91;10478950;28;2056;-78
2021/09/24 05:05:30;;;;;;;;;;;11.50;99.90;;;10.36;100.00;95898.22;10477722;28;1852;-78
2021/09/24 05:10:33;;;;;;;;;;;11.50;99.90;;;10.39;100.00;95897.72;10477660;28;1992;-77
2021/09/24 05:15:36;;;;;;;;;;;11.50;99.90;;;10.39;100.00;95891.53;10450280;28;2060;-76
2021/09/24 05:20:39;;;;;;;;;;;11.50;99.90;;;10.49;100.00;95900.38;10449596;28;2118;-78
2021/09/24 05:25:42;;;;;;;;;;;11.60;99.90;;;10.68;100.00;95908.69;10466343;28;2155;-76
2021/09/24 05:30:45;;;;;;;;;;;11.70;99.90;;;10.67;100.00;95917.84;10476892;28;2158;-77
2021/09/24 05:35:48;;;;;;;;;;;11.70;99.90;;;10.73;100.00;95914.06;10448926;28;1854;-77
2021/09/24 05:40:51;;;;;;;;;;;11.80;99.90;;;10.85;100.00;95921.06;10444747;28;2195;-77
2021/09/24 05:45:54;;;;;;;;;;;11.90;99.90;;;10.99;100.00;95922.91;10448908;28;2168;-76
2021/09/24 05:50:57;;;;;;;;;;;12.00;99.90;;;11.19;100.00;95937.38;10450861;28;2242;-76
2021/09/24 05:56:00;;;;;;;;;;;12.10;99.90;;;11.39;100.00;95942.72;10461607;28;2093;-78
2021/09/24 06:01:03;;;;;;;;;;;12.30;99.90;;;11.58;100.00;95945.63;10462003;28;2088;-80
2021/09/24 06:06:06;;;;;;;;;;;12.40;99.90;;;11.75;100.00;95946.06;10466246;28;1985;-77
2021/09/24 06:11:09;;;;;;;;;;;12.60;99.90;;;11.94;100.00;95942.78;10456990;28;1643;-75
2021/09/24 06:16:12;;;;;;;;;;;12.70;99.90;;;12.13;98.79;95941.06;10447251;28;2044;-76
2021/09/24 06:21:17;;;;;;;;;;;12.90;99.90;;;12.30;98.84;95944.19;10447838;28;2033;-77
2021/09/24 06:26:20;;;;;;;;;;;13.10;99.90;;;12.49;97.44;95949.72;10446465;28;2100;-78
2021/09/24 06:31:23;;;;;;;;;;;13.30;99.90;;;12.69;95.73;95944.16;10453824;28;2107;-78
2021/09/24 06:36:25;;;;;;;;;;;13.40;99.90;;;12.79;94.97;95945.97;10450006;28;1803;-79
2021/09/24 06:41:28;;;;;;;;;;;13.60;99.90;;;13.04;93.68;95949.50;10454317;28;2029;-79
2021/09/24 06:46:31;;;;;;;;;;;13.70;99.90;;;13.15;92.43;95949.13;10449618;28;2109;-75
2021/09/24 06:51:34;;;;;;;;;;;13.90;99.90;;;13.35;91.85;95953.53;10444964;28;2116;-76
2021/09/24 06:56:38;;;;;;;;;;;14.10;99.90;;;13.37;91.23;95959.47;10436659;28;2032;-77
2021/09/24 07:01:41;;;;;;;;;;;14.20;99.90;;;13.57;90.13;95954.94;10445063;28;2375;-75
2021/09/24 07:06:44;;;;;;;;;;;14.30;99.90;;;13.82;88.91;95957.34;10436997;28;1848;-74
2021/09/24 07:11:50;;;;;;;;;;;14.50;99.90;;;13.87;87.26;95961.84;10451121;28;2238;-76
2021/09/24 07:16:53;;;;;;;;;;;14.60;99.90;;;13.96;87.26;95960.13;10428081;28;2092;-76
2021/09/24 07:21:56;;;;;;;;;;;14.80;99.90;;;14.23;85.52;95967.59;10488750;28;1976;-79
2021/09/24 07:26:59;;;;;;;;;;;14.90;99.90;;;14.27;85.24;95963.22;10454518;28;2065;-77
2021/09/24 07:32:03;;;;;;;;;;;15.10;99.90;;;14.55;83.28;95962.28;10438936;28;2095;-79
2021/09/24 07:37:06;;;;;;;;;;;15.20;99.90;;;14.64;83.07;95969.75;10431909;28;2110;-78
2021/09/24 07:42:09;;;;;;;;;;;15.30;99.90;;;14.81;81.46;95972.69;10462708;28;2053;-79
2021/09/24 07:47:12;;;;;;;;;;;15.60;99.90;;;15.07;80.52;95973.88;10447661;28;2083;-77
2021/09/24 07:52:15;;;;;;;;;;;15.70;99.90;;;15.27;78.90;95971.91;10454138;28;1856;-75
2021/09/24 07:57:18;;;;;;;;;;;15.90;99.90;;;15.44;78.14;95977.56;10455257;28;2041;-78
2021/09/24 08:02:21;;;;;;;;;;;16.10;99.90;;;15.70;75.34;95975.22;10451785;28;2096;-77
2021/09/24 08:07:24;;;;;;;;;;;16.30;99.90;;;15.76;75.38;95978.63;10447921;28;2021;-77
2021/09/24 08:12:27;;;;;;;;;;;16.40;99.90;;;15.82;75.26;95983.63;10447878;28;1864;-74
2021/09/24 08:17:44;;;;;;;;;;;16.60;99.90;;;16.11;74.37;95983.34;10444233;28;2058;-76
2021/09/24 08:22:47;;;;;;;;;;;16.70;99.90;;;16.30;73.13;95982.41;10449458;28;2065;-75
2021/09/24 08:27:50;;;;;;;;;;;17.00;99.90;;;16.40;72.82;95976.72;10450755;28;2096;-76
2021/09/24 08:32:53;;;;;;;;;;;17.10;99.90;;;16.72;70.00;95973.84;10447997;28;2664;-73
2021/09/24 08:37:56;;;;;;;;;;;17.30;99.90;;;16.82;68.66;95982.88;10451519;28;2065;-74
2021/09/24 08:43:00;;;;;;;;;;;17.40;99.90;;;16.90;69.39;95980.22;10446338;28;1981;-73
2021/09/24 08:48:03;;;;;;;;;;;17.40;99.90;;;17.08;68.61;95980.34;10443185;28;2044;-75
2021/09/24 08:53:06;;;;;;;;;;;17.60;99.90;;;17.00;68.75;95979.97;10448296;28;2080;-76
2021/09/24 08:58:08;;;;;;;;;;;17.80;99.90;;;17.11;67.47;95975.06;10433815;28;2379;-75
2021/09/24 09:03:13;;;;;;;;;;;17.80;99.90;;;17.44;66.11;95972.06;10446139;28;1921;-74
2021/09/24 09:08:16;;;;;;;;;;;17.90;99.90;;;17.38;66.49;95960.53;10455123;28;2069;-73
2021/09/24 09:13:19;;;;;;;;;;;18.10;99.90;;;17.60;64.48;95965.09;10448422;28;2041;-75
2021/09/24 09:18:22;;;;;;;;;;;18.20;99.90;;;17.73;64.56;95960.72;10449590;28;1817;-74
2021/09/24 09:23:25;;;;;;;;;;;18.40;99.90;;;17.74;63.33;95957.66;10452943;28;2292;-75
2021/09/24 09:28:28;;;;;;;;;;;18.50;99.90;;;17.90;63.73;95957.25;10451564;28;1894;-76
2021/09/24 09:33:31;;;;;;;;;;;18.50;99.90;;;17.79;63.42;95951.28;10451000;28;2589;-72
2021/09/24 09:38:33;;;;;;;;;;;18.50;99.90;;;17.75;63.16;95951.13;10454398;28;2190;-73
2021/09/24 09:43:36;;;;;;;;;;;18.50;99.90;;;18.03;61.92;95957.13;10474431;28;2026;-78
2021/09/24 09:48:39;;;;;;;;;;;18.70;99.90;;;18.16;61.22;95932.84;10460212;28;2029;-77
2021/09/24 09:53:42;;;;;;;;;;;18.80;99.90;;;18.15;61.97;95936.66;10446128;28;2124;-76
2021/09/24 09:58:45;;;;;;;;;;;18.90;99.90;;;18.21;61.63;95935.41;10473743;28;1842;-79
2021/09/24 10:03:48;;;;;;;;;;;19.00;99.90;;;18.17;61.93;95928.97;10471362;28;2072;-77
2021/09/24 10:08:51;;;;;;;;;;;19.00;99.90;;;18.35;60.72;95919.72;10458712;28;1904;-78
2021/09/24 10:13:54;;;;;;;;;;;19.10;99.90;;;18.50;61.02;95929.31;10442714;28;2107;-77
2021/09/24 10:18:57;;;;;;;;;;;19.20;99.90;;;18.55;61.05;95918.28;10439671;28;2103;-77
2021/09/24 10:24:05;;;;;;;;;;;19.30;99.90;;;18.58;61.56;95923.09;10462340;28;2141;-77
2021/09/24 10:29:08;;;;;;;;;;;19.40;99.90;;;18.59;58.56;95916.53;10476218;28;1845;-78
2021/09/24 10:34:11;;;;;;;;;;;19.40;99.90;;;18.66;58.46;95908.69;10474961;28;1787;-77
2021/09/24 10:39:14;;;;;;;;;;;19.50;99.90;;;18.71;58.63;95900.38;10463292;28;1986;-76
2021/09/24 10:44:17;;;;;;;;;;;19.50;99.90;;;18.72;58.54;95893.00;10434670;28;1914;-77
2021/09/24 10:49:21;;;;;;;;;;;19.50;99.90;;;18.84;59.02;95896.66;10445311;28;1926;-77
2021/09/24 10:54:25;;;;;;;;;;;19.60;99.90;;;18.79;59.98;95893.31;10445394;28;1997;-76
2021/09/24 10:59:29;;;;;;;;;;;19.80;99.90;;;19.00;59.75;95890.69;10442450;28;1785;-76
2021/09/24 11:04:32;;;;;;;;;;;19.70;99.90;;;19.12;59.43;95888.09;10422086;28;2139;-76
2021/09/24 11:09:35;;;;;;;;;;;19.90;99.90;;;19.14;59.15;95880.41;10431931;28;2069;-76
2021/09/24 11:14:38;;;;;;;;;;;19.90;99.90;;;19.26;59.41;95872.34;10450523;28;2088;-76
2021/09/24 11:19:41;;;;;;;;;;;20.00;99.90;;;19.20;56.68;95875.56;10424758;28;1988;-75
2021/09/24 11:24:44;;;;;;;;;;;20.10;99.90;;;19.22;56.43;95871.41;10438843;28;2092;-76
2021/09/24 11:29:47;;;;;;;;;;;20.10;99.90;;;19.37;58.28;95868.13;10406128;28;2297;-76
2021/09/24 11:34:50;;;;;;;;;;;20.20;99.90;;;19.32;56.93;95868.31;10433205;28;2092;-75
2021/09/24 11:39:53;;;;;;;;;;;20.20;99.90;;;19.40;58.75;95867.50;10430017;28;1884;-75
2021/09/24 11:44:58;;;;;;;;;;;20.20;99.90;;;19.57;58.52;95860.34;10440069;28;2390;-76
2021/09/24 11:50:03;;;;;;;;;;;20.30;99.90;;;19.55;56.76;95851.72;10415882;28;2088;-75
2021/09/24 11:55:06;;;;;;;;;;;20.40;99.90;;;19.53;56.10;95854.78;10428556;28;2035;-75
2021/09/24 12:00:09;;;;;;;;;;;20.40;99.90;;;19.48;56.46;95843.25;10444953;28;1977;-73
2021/09/24 12:05:12;;;;;;;;;;;20.40;99.90;;;19.49;54.17;95850.28;10440344;28;2097;-72
2021/09/24 12:10:15;;;;;;;;;;;20.40;99.90;;;19.45;55.33;95841.97;10444320;28;2064;-72
2021/09/24 12:15:18;;;;;;;;;;;20.40;99.90;;;19.58;54.30;95840.16;10448638;28;1746;-75
2021/09/24 12:20:21;;;;;;;;;;;20.40;99.90;;;19.72;53.64;95840.72;10448633;28;2257;-75
2021/09/24 12:25:24;;;;;;;;;;;20.50;99.90;;;19.88;53.45;95833.56;10441361;28;2049;-77
2021/09/24 12:30:29;;;;;;;;;;;20.70;99.90;;;19.98;53.94;95829.66;10438930;28;2048;-77
2021/09/24 12:35:32;;;;;;;;;;;20.80;99.90;;;19.89;52.95;95837.88;10449460;28;2180;-78
2021/09/24 12:40:35;;;;;;;;;;;20.80;99.90;;;19.84;53.67;95821.69;10433959;28;1917;-78
2021/09/24 12:45:38;;;;;;;;;;;20.80;99.90;;;19.90;53.22;95830.50;10454735;28;2132;-77
2021/09/24 12:50:41;;;;;;;;;;;20.80;99.90;;;19.90;53.36;95816.84;10450393;28;1991;-78
2021/09/24 12:55:44;;;;;;;;;;;20.80;99.90;;;19.92;53.47;95807.22;10445405;28;2100;-78
2021/09/24 13:00:47;;;;;;;;;;;20.80;99.90;;;19.93;54.53;95811.53;10450345;28;2229;-78
2021/09/24 13:05:50;;;;;;;;;;;20.90;99.90;;;20.06;51.54;95800.69;10430212;28;2043;-78
2021/09/24 13:10:53;;;;;;;;;;;20.80;99.90;;;20.00;51.80;95807.47;10447157;28;1879;-78
2021/09/24 13:15:56;;;;;;;;;;;20.90;99.90;;;19.83;53.55;95787.38;10449690;28;2175;-79
2021/09/24 13:20:59;;;;;;;;;;;20.80;99.90;;;19.97;49.31;95777.00;10456512;28;2190;-78
2021/09/24 13:26:02;;;;;;;;;;;20.80;99.90;;;20.00;50.23;95781.00;10450332;28;2073;-78
2021/09/24 13:31:05;;;;;;;;;;;20.80;99.90;;;20.01;48.95;95776.34;10453123;28;2048;-78
2021/09/24 13:36:08;;;;;;;;;;;20.90;99.90;;;19.96;49.77;95780.84;10447879;28;2009;-78
2021/09/24 13:41:10;;;;;;;;;;;20.90;99.90;;;20.01;48.77;95774.41;10446716;28;1966;-78
2021/09/24 13:46:13;;;;;;;;;;;20.80;99.90;;;19.98;48.77;95772.34;10454376;28;2057;-78
2021/09/24 13:51:16;;;;;;;;;;;20.90;99.90;;;19.97;50.50;95771.53;10436015;28;1873;-78
2021/09/24 13:56:19;;;;;;;;;;;20.90;99.90;;;19.98;48.84;95756.78;10445835;28;2017;-78
2021/09/24 14:01:23;;;;;;;;;;;20.90;99.90;;;20.07;49.42;95759.44;10448808;28;2037;-78
2021/09/24 14:06:26;;;;;;;;;;;20.90;99.90;;;20.04;49.20;95745.66;10445573;28;2100;-77
2021/09/24 14:11:29;;;;;;;;;;;20.90;99.90;;;19.96;49.94;95748.13;10451923;28;1744;-78
2021/09/24 14:16:32;;;;;;;;;;;20.90;99.90;;;20.01;50.06;95754.50;10446477;28;2041;-78
2021/09/24 14:21:35;;;;;;;;;;;20.90;99.90;;;20.00;49.86;95744.72;10452149;28;2017;-78
2021/09/24 14:26:38;;;;;;;;;;;20.90;99.90;;;19.99;50.26;95743.94;10460377;28;2124;-77
2021/09/24 14:31:45;;;;;;;;;;;20.90;99.90;;;20.05;50.59;95739.06;10457404;28;2001;-77
2021/09/24 14:36:48;;;;;;;;;;;21.00;99.90;;;20.03;50.40;95744.06;10453811;28;1927;-79
2021/09/24 14:41:50;;;;;;;;;;;21.00;99.90;;;19.92;51.08;95736.28;10451296;28;3328;-79
2021/09/24 14:46:53;;;;;;;;;;;20.90;99.90;;;19.86;50.90;95737.63;10454409;28;2531;-78
2021/09/24 14:51:56;;;;;;;;;;;20.80;99.90;;;19.64;52.16;95741.47;10457375;28;2412;-78
2021/09/24 14:57:00;;;;;;;;;;;20.70;99.90;;;19.76;52.02;95743.47;10468490;28;2260;-78
2021/09/24 15:02:03;;;;;;;;;;;20.60;99.90;;;19.76;51.83;95740.75;10471078;28;1887;-78
2021/09/24 15:07:07;;;;;;;;;;;20.80;99.90;;;19.78;51.95;95730.28;10452681;28;1939;-79
2021/09/24 15:12:10;;;;;;;;;;;20.80;99.90;;;19.85;51.25;95725.13;10448152;28;1977;-78
2021/09/24 15:17:13;;;;;;;;;;;20.80;99.90;;;19.85;51.82;95716.94;10451072;28;2305;-79
2021/09/24 15:22:16;;;;;;;;;;;20.80;99.90;;;19.74;51.53;95718.47;10452852;28;1933;-78
2021/09/24 15:27:18;;;;;;;;;;;20.70;99.90;;;19.61;52.34;95714.09;10432542;28;2031;-78
2021/09/24 15:32:21;;;;;;;;;;;20.70;99.90;;;19.66;51.90;95719.34;10461022;28;2029;-78
2021/09/24 15:37:24;;;;;;;;;;;20.60;99.90;;;19.55;52.39;95715.38;10455494;28;2312;-78
2021/09/24 15:42:27;;;;;;;;;;;20.60;99.90;;;19.47;52.90;95713.50;10454441;28;2240;-76
2021/09/24 15:47:30;;;;;;;;;;;20.50;99.90;;;19.46;52.62;95712.69;10452107;28;2009;-79
2021/09/24 15:52:33;;;;;;;;;;;20.50;99.90;;;19.29;53.65;95713.63;10462624;28;2231;-78
2021/09/24 15:57:36;;;;;;;;;;;20.40;99.90;;;19.37;52.84;95712.78;10478782;28;1319;-78
2021/09/24 16:02:39;;;;;;;;;;;20.40;99.90;;;19.22;52.69;95716.09;10473815;28;1891;-78
2021/09/24 16:07:46;;;;;;;;;;;20.30;99.90;;;19.14;52.26;95711.47;10470303;28;2387;-79
2021/09/24 16:12:49;;;;;;;;;;;20.20;99.90;;;19.03;51.82;95718.44;10460482;28;2037;-77
2021/09/24 16:17:52;;;;;;;;;;;20.10;99.90;;;18.99;50.36;95722.94;10452937;28;2277;-79
2021/09/24 16:22:55;;;;;;;;;;;20.00;99.90;;;18.77;50.88;95724.81;10465687;28;2045;-77
2021/09/24 16:27:58;;;;;;;;;;;20.00;99.90;;;18.63;50.97;95726.91;10467105;28;2030;-79
2021/09/24 16:33:01;;;;;;;;;;;19.80;99.90;;;18.58;51.53;95729.81;10461341;28;1994;-78
2021/09/24 16:38:04;;;;;;;;;;;19.70;99.90;;;18.39;52.15;95730.19;10447446;28;2005;-80
2021/09/24 16:43:08;;;;;;;;;;;19.60;99.90;;;18.30;52.86;95732.91;10463098;28;2052;-77
2021/09/24 16:48:11;;;;;;;;;;;19.50;99.90;;;18.10;53.31;95730.88;10468646;28;1942;-77
2021/09/24 16:53:13;;;;;;;;;;;19.30;99.90;;;17.94;54.23;95732.47;10456528;28;2116;-77
2021/09/24 16:58:16;;;;;;;;;;;19.20;99.90;;;17.70;55.55;95724.81;10467433;28;2002;-78
2021/09/24 17:03:19;;;;;;;;;;;19.00;99.90;;;17.53;55.92;95731.03;10451974;28;1981;-78
2021/09/24 17:08:22;;;;;;;;;;;18.90;99.90;;;17.20;57.35;95739.63;10466029;28;2272;-79
2021/09/24 17:13:25;;;;;;;;;;;18.60;99.90;;;16.95;58.50;95743.84;10452129;28;2122;-78
2021/09/24 17:18:28;;;;;;;;;;;18.40;99.90;;;16.70;59.83;95747.28;10465354;28;2092;-77
2021/09/24 17:23:31;;;;;;;;;;;18.10;99.90;;;16.48;61.12;95750.81;10443742;28;2020;-77
2021/09/24 17:28:34;;;;;;;;;;;17.90;99.90;;;16.35;61.48;95754.41;10466708;28;2086;-77
2021/09/24 17:33:37;;;;;;;;;;;17.70;99.90;;;16.26;62.09;95756.25;10441641;28;2076;-79
2021/09/24 17:38:39;;;;;;;;;;;17.60;99.90;;;16.14;62.84;95763.03;10454449;28;2043;-80
2021/09/24 17:43:42;;;;;;;;;;;17.50;99.90;;;16.04;63.40;95757.09;10471394;28;2060;-78
2021/09/24 17:48:45;;;;;;;;;;;17.40;99.90;;;15.81;65.34;95762.50;10463906;28;2001;-78
2021/09/24 17:53:48;;;;;;;;;;;17.20;99.90;;;15.62;66.57;95759.94;10455171;28;2002;-78
2021/09/24 17:58:51;;;;;;;;;;;17.00;99.90;;;15.46;67.27;95771.38;10459298;28;2009;-77
2021/09/24 18:03:54;;;;;;;;;;;16.80;99.90;;;15.30;69.31;95765.50;10449757;28;2053;-78
2021/09/24 18:08:57;;;;;;;;;;;16.70;99.90;;;15.11;69.48;95773.75;10449766;28;1991;-78
2021/09/24 18:13:59;;;;;;;;;;;16.50;99.90;;;15.04;69.63;95770.66;10460187;28;2001;-78
2021/09/24 18:19:03;;;;;;;;;;;16.30;99.90;;;15.00;69.62;95786.69;10459968;28;1994;-79
2021/09/24 18:24:05;;;;;;;;;;;16.20;99.90;;;14.96;70.18;95784.91;10443900;28;2111;-79
2021/09/24 18:29:08;;;;;;;;;;;16.20;99.90;;;14.81;71.39;95788.69;10456145;28;1951;-79
2021/09/24 18:34:11;;;;;;;;;;;16.10;99.90;;;14.66;72.82;95799.81;10465175;28;1926;-80
2021/09/24 18:39:14;;;;;;;;;;;16.00;99.90;;;14.58;73.41;95790.47;10470363;28;1959;-80
2021/09/24 18:44:17;;;;;;;;;;;15.90;99.90;;;14.53;74.25;95796.78;10463622;28;1994;-80
2021/09/24 18:49:20;;;;;;;;;;;15.80;99.90;;;14.44;75.27;95798.53;10471951;28;2096;-79
2021/09/24 18:54:23;;;;;;;;;;;15.80;99.90;;;14.29;77.51;95796.09;10471092;28;1997;-80
2021/09/24 18:59:26;;;;;;;;;;;15.60;99.90;;;14.21;78.55;95804.88;10451888;28;2092;-79
2021/09/24 19:04:29;;;;;;;;;;;15.50;99.90;;;14.05;79.80;95799.69;10471936;28;2081;-80
2021/09/24 19:09:32;;;;;;;;;;;15.40;99.90;;;13.88;81.85;95818.38;10466324;28;1916;-78
2021/09/24 19:14:35;;;;;;;;;;;15.30;99.90;;;13.79;83.21;95815.50;10453819;28;2073;-79
2021/09/24 19:19:37;;;;;;;;;;;15.10;99.90;;;13.68;83.97;95819.47;10464104;28;2060;-80
2021/09/24 19:24:40;;;;;;;;;;;15.00;99.90;;;13.61;84.79;95824.41;10463286;28;1988;-80
2021/09/24 19:29:45;;;;;;;;;;;14.90;99.90;;;13.58;85.70;95826.91;10476335;28;2129;-80
2021/09/24 19:34:48;;;;;;;;;;;14.80;99.90;;;13.57;86.25;95825.28;10471613;28;1860;-80
2021/09/24 19:39:51;;;;;;;;;;;14.80;99.90;;;13.50;86.13;95829.16;10468623;28;2045;-75
2021/09/24 19:44:53;;;;;;;;;;;14.70;99.90;;;13.46;86.56;95828.13;10461228;28;2093;-76
2021/09/24 19:49:57;;;;;;;;;;;14.70;99.90;;;13.44;87.32;95838.41;10467383;28;1989;-77
2021/09/24 19:55:00;;;;;;;;;;;14.70;99.90;;;13.30;87.67;95836.72;10458087;28;2142;-79
2021/09/24 20:00:03;;;;;;;;;;;14.60;99.90;;;13.28;87.48;95849.69;10471184;28;2005;-78
2021/09/24 20:05:06;;;;;;;;;;;14.50;99.90;;;13.17;88.35;95841.69;10460169;28;2317;-79
2021/09/24 20:10:08;;;;;;;;;;;14.40;99.90;;;13.10;89.00;95846.63;10485648;28;2173;-78
2021/09/24 20:15:11;;;;;;;;;;;14.30;99.90;;;13.05;89.00;95846.69;10484603;28;2247;-77
2021/09/24 20:20:14;;;;;;;;;;;14.30;99.90;;;12.99;89.47;95843.25;10489787;28;2119;-79
2021/09/24 20:25:17;;;;;;;;;;;14.20;99.90;;;12.88;90.60;95836.34;10491187;28;2115;-80
2021/09/24 20:30:25;;;;;;;;;;;14.10;99.90;;;12.82;90.78;95844.78;10493662;28;1906;-81
2021/09/24 20:35:28;;;;;;;;;;;14.00;99.90;;;12.71;89.69;95857.56;10470288;28;2100;-79
2021/09/24 20:40:31;;;;;;;;;;;14.00;99.90;;;12.68;89.64;95841.97;10474823;28;2015;-80
2021/09/24 20:45:33;;;;;;;;;;;13.90;99.90;;;12.64;90.15;95860.59;10490460;28;1922;-79
2021/09/24 20:50:36;;;;;;;;;;;13.90;99.90;;;12.55;90.98;95862.31;10483209;28;1998;-77
2021/09/24 20:55:41;;;;;;;;;;;13.70;99.90;;;12.47;91.61;95852.13;10488810;28;1997;-78
2021/09/24 21:00:44;;;;;;;;;;;13.70;99.90;;;12.38;93.02;95851.91;10483977;28;2025;-77
2021/09/24 21:05:47;;;;;;;;;;;13.60;99.90;;;12.31;93.79;95853.34;10460693;28;2047;-79
2021/09/24 21:10:50;;;;;;;;;;;13.50;99.90;;;12.23;94.32;95854.75;10483364;28;2034;-78
2021/09/24 21:15:52;;;;;;;;;;;13.50;99.90;;;12.17;95.33;95848.59;10470944;28;1985;-78
2021/09/24 21:20:55;;;;;;;;;;;13.40;99.90;;;12.10;96.02;95856.19;10464436;28;1833;-77
2021/09/24 21:25:58;;;;;;;;;;;13.30;99.90;;;12.04;96.52;95861.91;10448847;28;2028;-78
2021/09/24 21:31:01;;;;;;;;;;;13.30;99.90;;;11.94;95.98;95867.34;10453853;28;2037;-78
2021/09/24 21:36:04;;;;;;;;;;;13.20;99.90;;;11.86;97.22;95871.44;10450306;28;2068;-77
2021/09/24 21:41:07;;;;;;;;;;;13.10;99.90;;;11.83;98.35;95866.59;10454714;28;2038;-77
2021/09/24 21:46:10;;;;;;;;;;;13.10;99.90;;;11.77;97.61;95873.91;10454490;28;2052;-77
2021/09/24 21:51:12;;;;;;;;;;;13.00;99.90;;;11.78;99.34;95875.50;10451113;28;2049;-77
2021/09/24 21:56:15;;;;;;;;;;;13.00;99.90;;;11.77;98.53;95871.22;10447836;28;2115;-76
2021/09/24 22:01:18;;;;;;;;;;;12.90;99.90;;;11.72;99.13;95871.22;10450980;28;1828;-78
2021/09/24 22:06:21;;;;;;;;;;;12.90;99.90;;;11.68;99.51;95870.16;10442686;28;1922;-76
2021/09/24 22:11:26;;;;;;;;;;;12.90;99.90;;;11.67;99.85;95876.66;10453648;28;2100;-77
2021/09/24 22:16:29;;;;;;;;;;;12.90;99.90;;;11.72;100.00;95878.50;10449754;28;1828;-77
2021/09/24 22:21:52;;;;;;;;;;;12.90;99.90;;;11.68;100.00;95883.63;10445655;28;2092;-78
2021/09/24 22:27:15;;;;;;;;;;;12.90;99.90;;;11.64;100.00;95880.72;10448453;28;1989;-77
2021/09/24 22:32:38;;;;;;;;;;;12.80;99.90;;;11.56;99.96;95869.69;10451653;28;2100;-75
2021/09/24 22:37:40;;;;;;;;;;;12.80;99.90;;;11.56;100.00;95883.16;10451956;28;1844;-75
2021/09/24 22:42:44;;;;;;;;;;;12.70;99.90;;;11.49;100.00;95878.06;10439182;28;2069;-76
2021/09/24 22:47:48;;;;;;;;;;;12.70;99.90;;;11.47;100.00;95879.44;10446958;28;1984;-76
2021/09/24 22:52:52;;;;;;;;;;;12.70;99.90;;;11.44;100.00;95874.59;10450118;28;1990;-76
2021/09/24 22:57:55;;;;;;;;;;;12.60;99.90;;;11.37;100.00;95874.91;10445083;28;2037;-77
2021/09/24 23:02:58;;;;;;;;;;;12.60;99.90;;;11.31;100.00;95868.72;10445167;28;2026;-77
2021/09/24 23:08:01;;;;;;;;;;;12.50;99.90;;;11.29;100.00;95870.91;10448612;28;2093;-76